sensor_id;sensor_type;location;lat;lon;timestamp;P1;durP1;ratioP1;P2;durP2;ratioP2
11222;SDS011;5668;52.012;8.724;2022-11-15T00:00:02;8.13;;;5.97;;
11222;SDS011;5668;52.012;8.724;2022-11-15T00:02:30;5.90;;;5.30;;
11222;SDS011;5668;52.012;8.724;2022-11-15T00:04:57;6.40;;;5.80;;
11222;SDS011;5668;52.012;8.724;2022-11-15T00:07:24;5.60;;;5.10;;
11222;SDS011;5668;52.012;8.724;2022-11-15T00:09:52;5.57;;;4.90;;
11222;SDS011;5668;52.012;8.724;2022-11-15T00:12:19;6.60;;;5.37;;
11222;SDS011;5668;52.012;8.724;2022-11-15T00:14:46;5.60;;;5.00;;
11222;SDS011;5668;52.012;8.724;2022-11-15T00:17:14;6.00;;;5.40;;
11222;SDS011;5668;52.012;8.724;2022-11-15T00:19:42;6.30;;;5.70;;
11222;SDS011;5668;52.012;8.724;2022-11-15T00:22:09;5.57;;;5.00;;
11222;SDS011;5668;52.012;8.724;2022-11-15T00:24:36;5.70;;;5.10;;
11222;SDS011;5668;52.012;8.724;2022-11-15T00:27:03;6.20;;;5.60;;
11222;SDS011;5668;52.012;8.724;2022-11-15T00:29:30;7.07;;;5.53;;
11222;SDS011;5668;52.012;8.724;2022-11-15T00:31:58;7.43;;;5.27;;
11222;SDS011;5668;52.012;8.724;2022-11-15T00:34:26;6.37;;;5.77;;
11222;SDS011;5668;52.012;8.724;2022-11-15T00:36:53;6.13;;;5.53;;
11222;SDS011;5668;52.012;8.724;2022-11-15T00:39:20;6.23;;;5.63;;
11222;SDS011;5668;52.012;8.724;2022-11-15T00:41:48;6.57;;;5.77;;
11222;SDS011;5668;52.012;8.724;2022-11-15T00:44:15;8.57;;;6.30;;
11222;SDS011;5668;52.012;8.724;2022-11-15T00:46:42;6.13;;;5.53;;
11222;SDS011;5668;52.012;8.724;2022-11-15T00:49:09;6.13;;;5.53;;
11222;SDS011;5668;52.012;8.724;2022-11-15T00:51:38;7.03;;;6.10;;
11222;SDS011;5668;52.012;8.724;2022-11-15T00:54:05;6.43;;;5.83;;
11222;SDS011;5668;52.012;8.724;2022-11-15T00:56:35;7.47;;;6.37;;
11222;SDS011;5668;52.012;8.724;2022-11-15T00:59:02;7.27;;;6.10;;
11222;SDS011;5668;52.012;8.724;2022-11-15T01:01:29;7.30;;;6.60;;
11222;SDS011;5668;52.012;8.724;2022-11-15T01:03:56;7.10;;;6.40;;
11222;SDS011;5668;52.012;8.724;2022-11-15T01:06:24;9.17;;;6.77;;
11222;SDS011;5668;52.012;8.724;2022-11-15T01:08:52;7.87;;;7.07;;
11222;SDS011;5668;52.012;8.724;2022-11-15T01:11:19;7.63;;;6.77;;
11222;SDS011;5668;52.012;8.724;2022-11-15T01:13:47;7.70;;;6.90;;
11222;SDS011;5668;52.012;8.724;2022-11-15T01:16:15;7.30;;;6.60;;
11222;SDS011;5668;52.012;8.724;2022-11-15T01:18:43;8.67;;;6.53;;
11222;SDS011;5668;52.012;8.724;2022-11-15T01:21:12;7.23;;;6.53;;
11222;SDS011;5668;52.012;8.724;2022-11-15T01:23:41;6.87;;;6.10;;
11222;SDS011;5668;52.012;8.724;2022-11-15T01:26:12;6.87;;;6.17;;
11222;SDS011;5668;52.012;8.724;2022-11-15T01:28:41;7.73;;;6.93;;
11222;SDS011;5668;52.012;8.724;2022-11-15T01:31:09;7.47;;;6.70;;
11222;SDS011;5668;52.012;8.724;2022-11-15T01:33:38;9.00;;;6.80;;
11222;SDS011;5668;52.012;8.724;2022-11-15T01:36:07;8.00;;;7.20;;
11222;SDS011;5668;52.012;8.724;2022-11-15T01:38:37;8.27;;;7.47;;
11222;SDS011;5668;52.012;8.724;2022-11-15T01:41:05;8.33;;;7.23;;
11222;SDS011;5668;52.012;8.724;2022-11-15T01:43:34;8.80;;;7.53;;
11222;SDS011;5668;52.012;8.724;2022-11-15T01:46:04;8.97;;;7.33;;
11222;SDS011;5668;52.012;8.724;2022-11-15T01:48:49;8.97;;;7.47;;
11222;SDS011;5668;52.012;8.724;2022-11-15T01:51:20;8.83;;;7.73;;
11222;SDS011;5668;52.012;8.724;2022-11-15T01:53:52;7.83;;;7.13;;
11222;SDS011;5668;52.012;8.724;2022-11-15T01:56:25;8.97;;;7.60;;
11222;SDS011;5668;52.012;8.724;2022-11-15T01:58:57;10.50;;;7.57;;
11222;SDS011;5668;52.012;8.724;2022-11-15T02:01:27;8.83;;;7.57;;
11222;SDS011;5668;52.012;8.724;2022-11-15T02:03:57;8.90;;;8.10;;
11222;SDS011;5668;52.012;8.724;2022-11-15T02:06:27;9.60;;;7.80;;
11222;SDS011;5668;52.012;8.724;2022-11-15T02:08:54;10.10;;;7.93;;
11222;SDS011;5668;52.012;8.724;2022-11-15T02:11:23;10.77;;;8.40;;
11222;SDS011;5668;52.012;8.724;2022-11-15T02:13:50;8.67;;;7.77;;
11222;SDS011;5668;52.012;8.724;2022-11-15T02:16:24;9.63;;;8.17;;
11222;SDS011;5668;52.012;8.724;2022-11-15T02:19:01;12.27;;;8.47;;
11222;SDS011;5668;52.012;8.724;2022-11-15T02:21:44;10.70;;;7.67;;
11222;SDS011;5668;52.012;8.724;2022-11-15T02:24:32;9.13;;;8.23;;
11222;SDS011;5668;52.012;8.724;2022-11-15T02:30:25;8.40;;;7.47;;
11222;SDS011;5668;52.012;8.724;2022-11-15T02:33:02;9.63;;;8.07;;
11222;SDS011;5668;52.012;8.724;2022-11-15T02:35:40;8.80;;;7.90;;
11222;SDS011;5668;52.012;8.724;2022-11-15T02:38:19;9.17;;;8.27;;
11222;SDS011;5668;52.012;8.724;2022-11-15T02:40:56;9.77;;;8.80;;
11222;SDS011;5668;52.012;8.724;2022-11-15T02:43:28;12.20;;;8.83;;
11222;SDS011;5668;52.012;8.724;2022-11-15T02:46:21;9.50;;;8.50;;
11222;SDS011;5668;52.012;8.724;2022-11-15T02:49:13;11.20;;;9.40;;
11222;SDS011;5668;52.012;8.724;2022-11-15T02:51:42;10.10;;;9.10;;
11222;SDS011;5668;52.012;8.724;2022-11-15T02:54:14;11.77;;;9.13;;
11222;SDS011;5668;52.012;8.724;2022-11-15T02:56:45;11.60;;;9.07;;
11222;SDS011;5668;52.012;8.724;2022-11-15T02:59:19;11.50;;;9.07;;
11222;SDS011;5668;52.012;8.724;2022-11-15T03:02:13;10.73;;;9.63;;
11222;SDS011;5668;52.012;8.724;2022-11-15T03:04:51;10.77;;;9.63;;
11222;SDS011;5668;52.012;8.724;2022-11-15T03:07:23;12.07;;;9.60;;
11222;SDS011;5668;52.012;8.724;2022-11-15T03:09:56;11.23;;;9.60;;
11222;SDS011;5668;52.012;8.724;2022-11-15T03:12:34;11.03;;;9.80;;
11222;SDS011;5668;52.012;8.724;2022-11-15T03:15:09;11.77;;;10.20;;
11222;SDS011;5668;52.012;8.724;2022-11-15T03:17:46;10.93;;;9.83;;
11222;SDS011;5668;52.012;8.724;2022-11-15T03:20:17;11.13;;;10.00;;
11222;SDS011;5668;52.012;8.724;2022-11-15T03:22:47;11.33;;;10.00;;
11222;SDS011;5668;52.012;8.724;2022-11-15T03:25:18;11.83;;;10.50;;
11222;SDS011;5668;52.012;8.724;2022-11-15T03:27:50;12.00;;;10.77;;
11222;SDS011;5668;52.012;8.724;2022-11-15T03:30:19;12.13;;;10.87;;
11222;SDS011;5668;52.012;8.724;2022-11-15T03:32:51;11.27;;;10.20;;
11222;SDS011;5668;52.012;8.724;2022-11-15T03:35:23;12.90;;;10.50;;
11222;SDS011;5668;52.012;8.724;2022-11-15T03:37:54;11.93;;;10.63;;
11222;SDS011;5668;52.012;8.724;2022-11-15T03:40:25;11.57;;;10.37;;
11222;SDS011;5668;52.012;8.724;2022-11-15T03:43:00;12.27;;;10.13;;
11222;SDS011;5668;52.012;8.724;2022-11-15T03:45:33;12.97;;;10.03;;
11222;SDS011;5668;52.012;8.724;2022-11-15T03:48:09;12.00;;;10.70;;
11222;SDS011;5668;52.012;8.724;2022-11-15T03:50:40;11.53;;;10.20;;
11222;SDS011;5668;52.012;8.724;2022-11-15T03:53:09;11.43;;;10.23;;
11222;SDS011;5668;52.012;8.724;2022-11-15T03:55:37;11.97;;;10.33;;
11222;SDS011;5668;52.012;8.724;2022-11-15T03:58:05;12.40;;;11.10;;
11222;SDS011;5668;52.012;8.724;2022-11-15T04:00:32;13.03;;;10.53;;
11222;SDS011;5668;52.012;8.724;2022-11-15T04:03:00;13.00;;;10.87;;
11222;SDS011;5668;52.012;8.724;2022-11-15T04:05:28;11.33;;;10.13;;
11222;SDS011;5668;52.012;8.724;2022-11-15T04:07:55;14.50;;;10.37;;
11222;SDS011;5668;52.012;8.724;2022-11-15T04:10:22;11.03;;;9.93;;
11222;SDS011;5668;52.012;8.724;2022-11-15T04:12:50;11.20;;;10.10;;
11222;SDS011;5668;52.012;8.724;2022-11-15T04:15:19;11.07;;;9.70;;
11222;SDS011;5668;52.012;8.724;2022-11-15T04:17:49;11.37;;;10.23;;
11222;SDS011;5668;52.012;8.724;2022-11-15T04:20:18;11.80;;;10.23;;
11222;SDS011;5668;52.012;8.724;2022-11-15T04:23:07;13.33;;;10.47;;
11222;SDS011;5668;52.012;8.724;2022-11-15T04:25:55;11.37;;;10.23;;
11222;SDS011;5668;52.012;8.724;2022-11-15T04:28:25;13.60;;;10.00;;
11222;SDS011;5668;52.012;8.724;2022-11-15T04:30:52;12.07;;;9.97;;
11222;SDS011;5668;52.012;8.724;2022-11-15T04:33:20;12.90;;;9.93;;
11222;SDS011;5668;52.012;8.724;2022-11-15T04:35:47;11.90;;;10.67;;
11222;SDS011;5668;52.012;8.724;2022-11-15T04:38:30;10.90;;;9.83;;
11222;SDS011;5668;52.012;8.724;2022-11-15T04:40:57;12.20;;;9.77;;
11222;SDS011;5668;52.012;8.724;2022-11-15T04:43:24;13.00;;;10.43;;
11222;SDS011;5668;52.012;8.724;2022-11-15T04:45:51;11.37;;;9.90;;
11222;SDS011;5668;52.012;8.724;2022-11-15T04:48:19;11.43;;;9.47;;
11222;SDS011;5668;52.012;8.724;2022-11-15T04:50:47;12.50;;;9.60;;
11222;SDS011;5668;52.012;8.724;2022-11-15T04:53:15;10.70;;;8.97;;
11222;SDS011;5668;52.012;8.724;2022-11-15T04:55:45;12.10;;;9.50;;
11222;SDS011;5668;52.012;8.724;2022-11-15T04:58:12;9.87;;;8.77;;
11222;SDS011;5668;52.012;8.724;2022-11-15T05:00:39;11.03;;;8.73;;
11222;SDS011;5668;52.012;8.724;2022-11-15T05:03:08;9.40;;;8.30;;
11222;SDS011;5668;52.012;8.724;2022-11-15T05:05:53;9.63;;;8.37;;
11222;SDS011;5668;52.012;8.724;2022-11-15T05:08:21;9.73;;;8.70;;
11222;SDS011;5668;52.012;8.724;2022-11-15T05:10:49;10.83;;;8.40;;
11222;SDS011;5668;52.012;8.724;2022-11-15T05:13:16;9.33;;;8.37;;
11222;SDS011;5668;52.012;8.724;2022-11-15T05:15:44;9.33;;;8.10;;
11222;SDS011;5668;52.012;8.724;2022-11-15T05:18:11;9.43;;;8.33;;
11222;SDS011;5668;52.012;8.724;2022-11-15T05:20:38;8.83;;;7.93;;
11222;SDS011;5668;52.012;8.724;2022-11-15T05:23:05;12.43;;;8.80;;
11222;SDS011;5668;52.012;8.724;2022-11-15T05:25:33;8.60;;;7.73;;
11222;SDS011;5668;52.012;8.724;2022-11-15T05:28:03;9.73;;;7.90;;
11222;SDS011;5668;52.012;8.724;2022-11-15T05:30:30;8.80;;;7.83;;
11222;SDS011;5668;52.012;8.724;2022-11-15T05:32:57;9.10;;;7.83;;
11222;SDS011;5668;52.012;8.724;2022-11-15T05:35:25;9.60;;;7.80;;
11222;SDS011;5668;52.012;8.724;2022-11-15T05:37:56;8.60;;;7.70;;
11222;SDS011;5668;52.012;8.724;2022-11-15T05:40:23;10.13;;;7.40;;
11222;SDS011;5668;52.012;8.724;2022-11-15T05:42:51;8.80;;;7.90;;
11222;SDS011;5668;52.012;8.724;2022-11-15T05:45:20;8.97;;;8.03;;
11222;SDS011;5668;52.012;8.724;2022-11-15T05:47:47;7.33;;;6.63;;
11222;SDS011;5668;52.012;8.724;2022-11-15T05:50:16;8.83;;;7.93;;
11222;SDS011;5668;52.012;8.724;2022-11-15T05:52:59;9.40;;;8.00;;
11222;SDS011;5668;52.012;8.724;2022-11-15T05:55:27;8.80;;;7.90;;
11222;SDS011;5668;52.012;8.724;2022-11-15T05:57:54;8.57;;;7.67;;
11222;SDS011;5668;52.012;8.724;2022-11-15T06:00:23;10.13;;;7.43;;
11222;SDS011;5668;52.012;8.724;2022-11-15T06:02:50;8.40;;;7.60;;
11222;SDS011;5668;52.012;8.724;2022-11-15T06:05:17;11.87;;;7.73;;
11222;SDS011;5668;52.012;8.724;2022-11-15T06:07:45;9.13;;;7.73;;
11222;SDS011;5668;52.012;8.724;2022-11-15T06:10:12;7.70;;;7.00;;
11222;SDS011;5668;52.012;8.724;2022-11-15T06:12:39;8.03;;;7.20;;
11222;SDS011;5668;52.012;8.724;2022-11-15T06:15:07;8.03;;;6.80;;
11222;SDS011;5668;52.012;8.724;2022-11-15T06:17:36;7.53;;;6.73;;
11222;SDS011;5668;52.012;8.724;2022-11-15T06:20:03;7.73;;;7.00;;
11222;SDS011;5668;52.012;8.724;2022-11-15T06:22:32;7.47;;;6.77;;
11222;SDS011;5668;52.012;8.724;2022-11-15T06:24:59;8.47;;;7.40;;
11222;SDS011;5668;52.012;8.724;2022-11-15T06:27:26;7.43;;;6.73;;
11222;SDS011;5668;52.012;8.724;2022-11-15T06:29:53;7.60;;;6.77;;
11222;SDS011;5668;52.012;8.724;2022-11-15T06:32:21;7.07;;;6.37;;
11222;SDS011;5668;52.012;8.724;2022-11-15T06:34:49;8.03;;;7.10;;
11222;SDS011;5668;52.012;8.724;2022-11-15T06:37:16;8.97;;;7.40;;
11222;SDS011;5668;52.012;8.724;2022-11-15T06:39:43;8.63;;;6.83;;
11222;SDS011;5668;52.012;8.724;2022-11-15T06:42:11;7.20;;;6.30;;
11222;SDS011;5668;52.012;8.724;2022-11-15T06:44:38;6.93;;;6.17;;
11222;SDS011;5668;52.012;8.724;2022-11-15T06:47:05;6.27;;;5.67;;
11222;SDS011;5668;52.012;8.724;2022-11-15T06:49:32;9.03;;;6.50;;
11222;SDS011;5668;52.012;8.724;2022-11-15T06:52:01;7.30;;;6.33;;
11222;SDS011;5668;52.012;8.724;2022-11-15T06:54:28;6.90;;;6.20;;
11222;SDS011;5668;52.012;8.724;2022-11-15T06:56:55;7.30;;;6.17;;
11222;SDS011;5668;52.012;8.724;2022-11-15T06:59:22;6.43;;;5.70;;
11222;SDS011;5668;52.012;8.724;2022-11-15T07:01:50;6.50;;;5.90;;
11222;SDS011;5668;52.012;8.724;2022-11-15T07:04:17;6.87;;;5.40;;
11222;SDS011;5668;52.012;8.724;2022-11-15T07:06:45;5.77;;;5.27;;
11222;SDS011;5668;52.012;8.724;2022-11-15T07:09:14;6.60;;;5.40;;
11222;SDS011;5668;52.012;8.724;2022-11-15T07:11:42;6.30;;;5.37;;
11222;SDS011;5668;52.012;8.724;2022-11-15T07:14:09;6.37;;;5.13;;
11222;SDS011;5668;52.012;8.724;2022-11-15T07:16:36;5.23;;;4.77;;
11222;SDS011;5668;52.012;8.724;2022-11-15T07:19:03;6.50;;;5.90;;
11222;SDS011;5668;52.012;8.724;2022-11-15T07:21:31;5.63;;;4.97;;
11222;SDS011;5668;52.012;8.724;2022-11-15T07:23:59;5.20;;;4.70;;
11222;SDS011;5668;52.012;8.724;2022-11-15T07:26:27;5.13;;;4.60;;
11222;SDS011;5668;52.012;8.724;2022-11-15T07:28:55;6.90;;;4.97;;
11222;SDS011;5668;52.012;8.724;2022-11-15T07:31:22;5.23;;;4.60;;
11222;SDS011;5668;52.012;8.724;2022-11-15T07:33:50;5.33;;;4.83;;
11222;SDS011;5668;52.012;8.724;2022-11-15T07:36:17;5.00;;;4.37;;
11222;SDS011;5668;52.012;8.724;2022-11-15T07:38:44;6.40;;;5.03;;
11222;SDS011;5668;52.012;8.724;2022-11-15T07:41:12;5.07;;;4.57;;
11222;SDS011;5668;52.012;8.724;2022-11-15T07:43:40;5.37;;;4.87;;
11222;SDS011;5668;52.012;8.724;2022-11-15T07:46:08;5.27;;;4.77;;
11222;SDS011;5668;52.012;8.724;2022-11-15T07:48:35;5.70;;;4.70;;
11222;SDS011;5668;52.012;8.724;2022-11-15T07:51:06;4.97;;;4.20;;
11222;SDS011;5668;52.012;8.724;2022-11-15T07:53:36;5.13;;;4.50;;
11222;SDS011;5668;52.012;8.724;2022-11-15T07:56:05;6.40;;;3.80;;
11222;SDS011;5668;52.012;8.724;2022-11-15T07:58:32;4.57;;;4.17;;
11222;SDS011;5668;52.012;8.724;2022-11-15T08:01:03;5.90;;;4.57;;
11222;SDS011;5668;52.012;8.724;2022-11-15T08:03:31;4.27;;;3.87;;
11222;SDS011;5668;52.012;8.724;2022-11-15T08:05:58;4.53;;;3.70;;
11222;SDS011;5668;52.012;8.724;2022-11-15T08:08:26;5.10;;;4.07;;
11222;SDS011;5668;52.012;8.724;2022-11-15T08:10:53;4.10;;;3.63;;
11222;SDS011;5668;52.012;8.724;2022-11-15T08:13:20;4.00;;;3.60;;
11222;SDS011;5668;52.012;8.724;2022-11-15T08:15:48;3.73;;;3.20;;
11222;SDS011;5668;52.012;8.724;2022-11-15T08:18:16;3.70;;;3.40;;
11222;SDS011;5668;52.012;8.724;2022-11-15T08:20:44;3.20;;;2.90;;
11222;SDS011;5668;52.012;8.724;2022-11-15T08:23:11;4.87;;;2.90;;
11222;SDS011;5668;52.012;8.724;2022-11-15T08:25:38;3.80;;;3.30;;
11222;SDS011;5668;52.012;8.724;2022-11-15T08:28:06;3.83;;;3.10;;
11222;SDS011;5668;52.012;8.724;2022-11-15T08:30:36;3.23;;;2.93;;
11222;SDS011;5668;52.012;8.724;2022-11-15T08:33:09;3.03;;;2.73;;
11222;SDS011;5668;52.012;8.724;2022-11-15T08:35:39;3.23;;;2.60;;
11222;SDS011;5668;52.012;8.724;2022-11-15T08:38:07;3.20;;;2.73;;
11222;SDS011;5668;52.012;8.724;2022-11-15T08:40:34;3.77;;;2.60;;
11222;SDS011;5668;52.012;8.724;2022-11-15T08:43:02;3.20;;;2.90;;
11222;SDS011;5668;52.012;8.724;2022-11-15T08:45:30;2.67;;;2.43;;
11222;SDS011;5668;52.012;8.724;2022-11-15T08:47:57;3.47;;;2.80;;
11222;SDS011;5668;52.012;8.724;2022-11-15T08:50:26;2.63;;;2.30;;
11222;SDS011;5668;52.012;8.724;2022-11-15T08:52:55;3.50;;;2.80;;
11222;SDS011;5668;52.012;8.724;2022-11-15T08:55:22;2.93;;;2.63;;
11222;SDS011;5668;52.012;8.724;2022-11-15T08:57:49;3.83;;;2.67;;
11222;SDS011;5668;52.012;8.724;2022-11-15T09:00:17;2.90;;;2.70;;
11222;SDS011;5668;52.012;8.724;2022-11-15T09:02:45;2.70;;;2.37;;
11222;SDS011;5668;52.012;8.724;2022-11-15T09:05:12;3.13;;;2.80;;
11222;SDS011;5668;52.012;8.724;2022-11-15T09:07:40;2.53;;;2.33;;
11222;SDS011;5668;52.012;8.724;2022-11-15T09:10:11;3.10;;;2.23;;
11222;SDS011;5668;52.012;8.724;2022-11-15T09:12:39;3.13;;;2.33;;
11222;SDS011;5668;52.012;8.724;2022-11-15T09:15:07;2.43;;;2.23;;
11222;SDS011;5668;52.012;8.724;2022-11-15T09:17:35;2.10;;;1.90;;
11222;SDS011;5668;52.012;8.724;2022-11-15T09:20:02;3.03;;;2.30;;
11222;SDS011;5668;52.012;8.724;2022-11-15T09:22:31;2.07;;;1.97;;
11222;SDS011;5668;52.012;8.724;2022-11-15T09:24:58;2.33;;;2.07;;
11222;SDS011;5668;52.012;8.724;2022-11-15T09:27:28;2.20;;;2.00;;
11222;SDS011;5668;52.012;8.724;2022-11-15T09:29:56;2.37;;;2.17;;
11222;SDS011;5668;52.012;8.724;2022-11-15T09:32:23;2.10;;;1.90;;
11222;SDS011;5668;52.012;8.724;2022-11-15T09:34:53;2.73;;;2.10;;
11222;SDS011;5668;52.012;8.724;2022-11-15T09:37:21;2.63;;;2.20;;
11222;SDS011;5668;52.012;8.724;2022-11-15T09:39:48;2.87;;;2.10;;
11222;SDS011;5668;52.012;8.724;2022-11-15T09:42:20;2.70;;;1.97;;
11222;SDS011;5668;52.012;8.724;2022-11-15T09:45:05;2.30;;;1.90;;
11222;SDS011;5668;52.012;8.724;2022-11-15T09:47:51;2.40;;;2.00;;
11222;SDS011;5668;52.012;8.724;2022-11-15T09:50:42;2.87;;;1.97;;
11222;SDS011;5668;52.012;8.724;2022-11-15T09:53:12;2.80;;;2.10;;
11222;SDS011;5668;52.012;8.724;2022-11-15T09:55:46;3.07;;;1.90;;
11222;SDS011;5668;52.012;8.724;2022-11-15T09:58:23;2.67;;;1.90;;
11222;SDS011;5668;52.012;8.724;2022-11-15T10:00:56;3.13;;;1.97;;
11222;SDS011;5668;52.012;8.724;2022-11-15T10:03:28;1.80;;;1.70;;
11222;SDS011;5668;52.012;8.724;2022-11-15T10:06:00;1.83;;;1.60;;
11222;SDS011;5668;52.012;8.724;2022-11-15T10:08:44;2.50;;;1.97;;
11222;SDS011;5668;52.012;8.724;2022-11-15T10:11:17;1.87;;;1.47;;
11222;SDS011;5668;52.012;8.724;2022-11-15T10:13:49;1.77;;;1.60;;
11222;SDS011;5668;52.012;8.724;2022-11-15T10:16:32;2.90;;;1.93;;
11222;SDS011;5668;52.012;8.724;2022-11-15T10:19:18;1.63;;;1.53;;
11222;SDS011;5668;52.012;8.724;2022-11-15T10:21:54;1.80;;;1.70;;
11222;SDS011;5668;52.012;8.724;2022-11-15T10:24:31;1.80;;;1.70;;
11222;SDS011;5668;52.012;8.724;2022-11-15T10:27:06;1.60;;;1.50;;
11222;SDS011;5668;52.012;8.724;2022-11-15T10:29:40;2.20;;;1.77;;
11222;SDS011;5668;52.012;8.724;2022-11-15T10:32:10;2.10;;;1.70;;
11222;SDS011;5668;52.012;8.724;2022-11-15T10:34:38;3.90;;;1.63;;
11222;SDS011;5668;52.012;8.724;2022-11-15T10:37:06;1.60;;;1.40;;
11222;SDS011;5668;52.012;8.724;2022-11-15T10:39:33;1.40;;;1.30;;
11222;SDS011;5668;52.012;8.724;2022-11-15T10:42:14;2.20;;;1.55;;
11222;SDS011;5668;52.012;8.724;2022-11-15T10:44:44;1.70;;;1.60;;
11222;SDS011;5668;52.012;8.724;2022-11-15T10:50:05;2.72;;;1.80;;
11222;SDS011;5668;52.012;8.724;2022-11-15T10:52:52;2.08;;;1.50;;
11222;SDS011;5668;52.012;8.724;2022-11-15T10:55:21;2.40;;;1.50;;
11222;SDS011;5668;52.012;8.724;2022-11-15T10:57:53;3.10;;;1.60;;
11222;SDS011;5668;52.012;8.724;2022-11-15T11:00:29;1.88;;;1.52;;
11222;SDS011;5668;52.012;8.724;2022-11-15T11:03:04;1.75;;;1.45;;
11222;SDS011;5668;52.012;8.724;2022-11-15T11:05:33;1.38;;;1.23;;
11222;SDS011;5668;52.012;8.724;2022-11-15T11:08:03;2.05;;;1.48;;
11222;SDS011;5668;52.012;8.724;2022-11-15T11:10:46;3.00;;;1.25;;
11222;SDS011;5668;52.012;8.724;2022-11-15T11:13:21;1.52;;;1.27;;
11222;SDS011;5668;52.012;8.724;2022-11-15T11:15:52;1.30;;;1.20;;
11222;SDS011;5668;52.012;8.724;2022-11-15T11:18:27;2.05;;;1.20;;
11222;SDS011;5668;52.012;8.724;2022-11-15T11:20:58;1.58;;;1.27;;
11222;SDS011;5668;52.012;8.724;2022-11-15T11:23:37;2.13;;;1.52;;
11222;SDS011;5668;52.012;8.724;2022-11-15T11:26:15;1.27;;;1.17;;
11222;SDS011;5668;52.012;8.724;2022-11-15T11:28:59;1.92;;;1.55;;
11222;SDS011;5668;52.012;8.724;2022-11-15T11:31:34;1.45;;;1.23;;
11222;SDS011;5668;52.012;8.724;2022-11-15T11:34:10;1.65;;;1.40;;
11222;SDS011;5668;52.012;8.724;2022-11-15T11:36:47;1.40;;;1.30;;
11222;SDS011;5668;52.012;8.724;2022-11-15T11:39:26;1.65;;;1.33;;
11222;SDS011;5668;52.012;8.724;2022-11-15T11:42:03;2.83;;;1.33;;
11222;SDS011;5668;52.012;8.724;2022-11-15T11:44:43;1.15;;;1.05;;
11222;SDS011;5668;52.012;8.724;2022-11-15T11:47:22;2.67;;;1.42;;
11222;SDS011;5668;52.012;8.724;2022-11-15T11:49:55;1.67;;;1.30;;
11222;SDS011;5668;52.012;8.724;2022-11-15T11:52:27;1.35;;;1.25;;
11222;SDS011;5668;52.012;8.724;2022-11-15T11:55:01;1.63;;;1.25;;
11222;SDS011;5668;52.012;8.724;2022-11-15T11:57:38;1.50;;;1.20;;
11222;SDS011;5668;52.012;8.724;2022-11-15T12:00:13;1.65;;;1.30;;
11222;SDS011;5668;52.012;8.724;2022-11-15T12:02:47;2.53;;;1.50;;
11222;SDS011;5668;52.012;8.724;2022-11-15T12:05:34;1.67;;;1.20;;
11222;SDS011;5668;52.012;8.724;2022-11-15T12:08:09;1.52;;;1.33;;
11222;SDS011;5668;52.012;8.724;2022-11-15T12:10:50;1.10;;;1.00;;
11222;SDS011;5668;52.012;8.724;2022-11-15T12:13:24;2.70;;;1.15;;
11222;SDS011;5668;52.012;8.724;2022-11-15T12:15:59;1.83;;;1.20;;
11222;SDS011;5668;52.012;8.724;2022-11-15T12:18:33;1.30;;;1.20;;
11222;SDS011;5668;52.012;8.724;2022-11-15T12:21:03;1.75;;;1.27;;
11222;SDS011;5668;52.012;8.724;2022-11-15T12:23:37;1.73;;;1.20;;
11222;SDS011;5668;52.012;8.724;2022-11-15T12:26:10;2.78;;;1.42;;
11222;SDS011;5668;52.012;8.724;2022-11-15T12:28:45;2.65;;;1.30;;
11222;SDS011;5668;52.012;8.724;2022-11-15T12:31:16;1.65;;;1.40;;
11222;SDS011;5668;52.012;8.724;2022-11-15T12:33:51;1.30;;;1.15;;
11222;SDS011;5668;52.012;8.724;2022-11-15T12:36:30;1.15;;;1.05;;
11222;SDS011;5668;52.012;8.724;2022-11-15T12:39:04;1.45;;;1.13;;
11222;SDS011;5668;52.012;8.724;2022-11-15T12:41:34;1.50;;;1.30;;
11222;SDS011;5668;52.012;8.724;2022-11-15T12:44:02;2.28;;;1.30;;
11222;SDS011;5668;52.012;8.724;2022-11-15T12:49:44;2.78;;;1.27;;
11222;SDS011;5668;52.012;8.724;2022-11-15T12:52:12;1.30;;;1.20;;
11222;SDS011;5668;52.012;8.724;2022-11-15T12:54:51;1.20;;;1.10;;
11222;SDS011;5668;52.012;8.724;2022-11-15T13:03:18;1.33;;;1.20;;
11222;SDS011;5668;52.012;8.724;2022-11-15T13:08:52;1.40;;;1.30;;
11222;SDS011;5668;52.012;8.724;2022-11-15T13:17:21;1.83;;;1.40;;
11222;SDS011;5668;52.012;8.724;2022-11-15T13:19:58;1.90;;;1.60;;
11222;SDS011;5668;52.012;8.724;2022-11-15T13:22:37;3.08;;;1.73;;
11222;SDS011;5668;52.012;8.724;2022-11-15T13:25:24;2.88;;;1.50;;
11222;SDS011;5668;52.012;8.724;2022-11-15T13:28:17;1.90;;;1.70;;
11222;SDS011;5668;52.012;8.724;2022-11-15T13:30:51;1.50;;;1.40;;
11222;SDS011;5668;52.012;8.724;2022-11-15T13:33:28;2.00;;;1.48;;
11222;SDS011;5668;52.012;8.724;2022-11-15T13:35:58;3.65;;;1.60;;
11222;SDS011;5668;52.012;8.724;2022-11-15T13:38:28;1.60;;;1.50;;
11222;SDS011;5668;52.012;8.724;2022-11-15T13:40:58;2.15;;;1.80;;
11222;SDS011;5668;52.012;8.724;2022-11-15T13:43:36;2.00;;;1.80;;
11222;SDS011;5668;52.012;8.724;2022-11-15T13:46:07;3.53;;;1.80;;
11222;SDS011;5668;52.012;8.724;2022-11-15T13:48:39;2.40;;;1.80;;
11222;SDS011;5668;52.012;8.724;2022-11-15T13:51:08;2.55;;;1.90;;
11222;SDS011;5668;52.012;8.724;2022-11-15T13:53:42;2.92;;;2.03;;
11222;SDS011;5668;52.012;8.724;2022-11-15T13:56:15;1.95;;;1.85;;
11222;SDS011;5668;52.012;8.724;2022-11-15T13:58:44;3.53;;;1.95;;
11222;SDS011;5668;52.012;8.724;2022-11-15T14:01:14;2.00;;;1.90;;
11222;SDS011;5668;52.012;8.724;2022-11-15T14:03:48;3.15;;;1.83;;
11222;SDS011;5668;52.012;8.724;2022-11-15T14:06:19;2.25;;;1.88;;
11222;SDS011;5668;52.012;8.724;2022-11-15T14:08:59;2.30;;;1.95;;
11222;SDS011;5668;52.012;8.724;2022-11-15T14:11:49;1.95;;;1.70;;
11222;SDS011;5668;52.012;8.724;2022-11-15T14:14:19;2.20;;;1.90;;
11222;SDS011;5668;52.012;8.724;2022-11-15T14:16:48;2.80;;;2.00;;
11222;SDS011;5668;52.012;8.724;2022-11-15T14:19:33;2.95;;;1.75;;
11222;SDS011;5668;52.012;8.724;2022-11-15T14:22:10;3.72;;;1.88;;
11222;SDS011;5668;52.012;8.724;2022-11-15T14:24:43;2.00;;;1.80;;
11222;SDS011;5668;52.012;8.724;2022-11-15T14:27:25;2.75;;;1.80;;
11222;SDS011;5668;52.012;8.724;2022-11-15T14:29:54;2.10;;;1.70;;
11222;SDS011;5668;52.012;8.724;2022-11-15T14:32:21;3.22;;;1.95;;
11222;SDS011;5668;52.012;8.724;2022-11-15T14:34:53;2.65;;;1.70;;
11222;SDS011;5668;52.012;8.724;2022-11-15T14:37:22;1.63;;;1.52;;
11222;SDS011;5668;52.012;8.724;2022-11-15T14:39:51;3.10;;;1.80;;
11222;SDS011;5668;52.012;8.724;2022-11-15T14:42:20;2.25;;;1.80;;
11222;SDS011;5668;52.012;8.724;2022-11-15T14:44:50;2.38;;;1.75;;
11222;SDS011;5668;52.012;8.724;2022-11-15T14:47:17;1.65;;;1.42;;
11222;SDS011;5668;52.012;8.724;2022-11-15T14:49:45;3.03;;;1.60;;
11222;SDS011;5668;52.012;8.724;2022-11-15T14:52:23;2.50;;;1.83;;
11222;SDS011;5668;52.012;8.724;2022-11-15T14:54:52;3.67;;;1.65;;
11222;SDS011;5668;52.012;8.724;2022-11-15T14:57:20;3.00;;;1.90;;
11222;SDS011;5668;52.012;8.724;2022-11-15T14:59:47;51.28;;;6.07;;
11222;SDS011;5668;52.012;8.724;2022-11-15T15:02:17;12.25;;;2.55;;
11222;SDS011;5668;52.012;8.724;2022-11-15T15:04:48;8.45;;;1.80;;
11222;SDS011;5668;52.012;8.724;2022-11-15T15:07:16;1.98;;;1.60;;
11222;SDS011;5668;52.012;8.724;2022-11-15T15:09:44;2.75;;;1.73;;
11222;SDS011;5668;52.012;8.724;2022-11-15T15:12:14;2.30;;;1.77;;
11222;SDS011;5668;52.012;8.724;2022-11-15T15:14:43;2.10;;;1.70;;
11222;SDS011;5668;52.012;8.724;2022-11-15T15:17:12;2.50;;;1.60;;
11222;SDS011;5668;52.012;8.724;2022-11-15T15:19:40;1.83;;;1.67;;
11222;SDS011;5668;52.012;8.724;2022-11-15T15:22:09;2.55;;;1.50;;
11222;SDS011;5668;52.012;8.724;2022-11-15T15:24:40;2.40;;;1.70;;
11222;SDS011;5668;52.012;8.724;2022-11-15T15:27:07;2.42;;;1.70;;
11222;SDS011;5668;52.012;8.724;2022-11-15T15:29:34;2.80;;;1.40;;
11222;SDS011;5668;52.012;8.724;2022-11-15T15:32:02;2.33;;;1.70;;
11222;SDS011;5668;52.012;8.724;2022-11-15T15:34:30;4.65;;;1.60;;
11222;SDS011;5668;52.012;8.724;2022-11-15T15:37:09;2.63;;;1.75;;
11222;SDS011;5668;52.012;8.724;2022-11-15T15:39:48;2.10;;;1.60;;
11222;SDS011;5668;52.012;8.724;2022-11-15T15:42:16;2.63;;;1.65;;
11222;SDS011;5668;52.012;8.724;2022-11-15T15:44:43;1.63;;;1.30;;